Time;durP1;ratioP1;P1;durP2;ratioP2;P2;SDS_P1;SDS_P2;PMS_P1;PMS_P2;Temp;Humidity;BMP_temperature;BMP_pressure;BME280_temperature;BME280_humidity;BME280_pressure;Samples;Min_cycle;Max_cycle;Signal;HPM_P1;HPM_P2
2023/05/10 00:00:40;;;;;;;0.20;0.20;;;17.20;99.90;;;;;;4933986;29;20711;-65
2023/05/10 00:03:07;;;;;;;0.30;0.30;;;17.20;99.90;;;;;;4956061;28;20230;-65
2023/05/10 00:05:34;;;;;;;0.40;0.40;;;17.10;99.90;;;;;;4961756;28;20201;-64
2023/05/10 00:08:01;;;;;;;0.20;0.20;;;17.10;99.90;;;;;;4943768;28;20201;-64
2023/05/10 00:10:28;;;;;;;0.40;0.40;;;16.90;99.90;;;;;;4955728;28;20605;-64
2023/05/10 00:12:55;;;;;;;0.30;0.30;;;17.10;99.90;;;;;;4939842;28;20555;-66
2023/05/10 00:15:22;;;;;;;0.30;0.30;;;16.90;99.90;;;;;;4943465;28;20191;-65
2023/05/10 00:17:49;;;;;;;0.20;0.20;;;16.80;99.90;;;;;;4945591;29;20223;-64
2023/05/10 00:20:16;;;;;;;0.30;0.30;;;16.70;99.90;;;;;;4940262;29;20671;-65
2023/05/10 00:22:44;;;;;;;0.20;0.20;;;16.60;99.90;;;;;;4942362;29;20565;-68
2023/05/10 00:25:11;;;;;;;0.30;0.30;;;16.70;99.90;;;;;;4933618;29;20238;-67
2023/05/10 00:27:38;;;;;;;0.30;0.30;;;16.80;99.90;;;;;;4947740;29;20234;-66
2023/05/10 00:30:06;;;;;;;0.20;0.20;;;16.60;99.90;;;;;;4950671;29;20735;-65
2023/05/10 00:32:34;;;;;;;0.20;0.20;;;16.60;99.90;;;;;;4935703;28;20261;-66
2023/05/10 00:35:01;;;;;;;0.30;0.30;;;16.60;99.90;;;;;;4942188;29;20281;-64
2023/05/10 00:37:28;;;;;;;0.30;0.30;;;16.60;99.90;;;;;;4945136;29;20687;-65
2023/05/10 00:39:55;;;;;;;0.30;0.30;;;16.70;99.90;;;;;;4938214;29;20242;-65
2023/05/10 00:42:22;;;;;;;0.30;0.30;;;16.50;99.90;;;;;;4945071;29;20273;-65
2023/05/10 00:44:52;;;;;;;0.30;0.30;;;16.40;99.90;;;;;;4934056;29;20234;-66
2023/05/10 00:47:19;;;;;;;0.20;0.20;;;16.30;99.90;;;;;;4945338;29;20199;-66
2023/05/10 00:49:46;;;;;;;0.30;0.30;;;16.50;99.90;;;;;;4937106;29;20278;-65
2023/05/10 00:52:14;;;;;;;0.20;0.20;;;16.40;99.90;;;;;;4932308;29;20221;-66
2023/05/10 00:54:41;;;;;;;0.20;0.20;;;16.50;99.90;;;;;;4946961;29;20202;-66
2023/05/10 00:57:08;;;;;;;0.30;0.30;;;16.50;99.90;;;;;;4920856;28;20273;-66
2023/05/10 00:59:35;;;;;;;0.30;0.30;;;16.50;99.90;;;;;;4932720;29;20233;-67
2023/05/10 01:02:03;;;;;;;0.30;0.30;;;16.30;99.90;;;;;;4932414;29;20226;-65
2023/05/10 01:04:30;;;;;;;0.30;0.30;;;16.30;99.90;;;;;;4948156;28;20222;-66
2023/05/10 01:06:57;;;;;;;0.30;0.30;;;16.30;99.90;;;;;;4949678;29;20694;-65
2023/05/10 01:09:26;;;;;;;0.30;0.30;;;16.20;99.90;;;;;;4928810;29;20199;-64
2023/05/10 01:11:56;;;;;;;0.30;0.30;;;16.20;99.90;;;;;;4924246;29;20254;-66
2023/05/10 01:14:24;;;;;;;0.20;0.20;;;16.10;99.90;;;;;;4934017;29;20199;-65
2023/05/10 01:16:53;;;;;;;0.23;0.23;;;16.20;99.90;;;;;;4953632;28;20219;-67
2023/05/10 01:19:23;;;;;;;0.23;0.23;;;16.10;99.90;;;;;;4931676;29;20206;-66
2023/05/10 01:22:12;;;;;;;0.30;0.30;;;16.10;99.90;;;;;;4949892;29;20203;-65
2023/05/10 01:24:59;;;;;;;0.30;0.30;;;16.10;99.90;;;;;;4947823;29;20199;-65
2023/05/10 01:27:32;;;;;;;0.30;0.30;;;16.10;99.90;;;;;;4913763;29;20208;-64
2023/05/10 01:30:18;;;;;;;0.20;0.20;;;16.20;99.90;;;;;;4948673;28;20203;-63
2023/05/10 01:33:05;;;;;;;0.30;0.30;;;16.10;99.90;;;;;;4943322;28;20203;-62
2023/05/10 01:35:50;;;;;;;0.30;0.30;;;16.30;99.90;;;;;;4936619;29;20206;-65
2023/05/10 01:38:26;;;;;;;0.50;0.50;;;16.10;99.90;;;;;;4932612;28;20224;-65
2023/05/10 01:41:24;;;;;;;0.30;0.30;;;16.20;99.90;;;;;;4933109;29;20191;-65
2023/05/10 01:44:29;;;;;;;0.30;0.30;;;16.30;99.90;;;;;;4935539;29;20187;-65
2023/05/10 01:47:06;;;;;;;0.20;0.20;;;16.80;99.90;;;;;;4948389;28;20675;-67
2023/05/10 01:49:41;;;;;;;0.25;0.25;;;17.00;99.90;;;;;;4934616;28;20255;-64
2023/05/10 01:52:11;;;;;;;0.20;0.20;;;17.10;99.90;;;;;;4936731;28;20202;-65
2023/05/10 01:55:01;;;;;;;0.20;0.20;;;17.40;99.90;;;;;;4940480;29;20198;-66
2023/05/10 01:57:33;;;;;;;0.20;0.20;;;17.30;99.90;;;;;;4932343;29;20224;-64
2023/05/10 02:00:03;;;;;;;0.30;0.30;;;17.40;99.90;;;;;;4948550;29;20203;-66
2023/05/10 02:02:45;;;;;;;0.52;0.52;;;17.40;99.90;;;;;;4944402;28;20242;-66
2023/05/10 02:05:14;;;;;;;1.00;0.98;;;17.20;99.90;;;;;;4949932;29;20191;-65
2023/05/10 02:07:42;;;;;;;0.20;0.20;;;17.20;99.90;;;;;;4931373;29;20650;-65
2023/05/10 02:10:11;;;;;;;0.30;0.30;;;17.20;99.90;;;;;;4938032;29;20708;-65
2023/05/10 02:12:43;;;;;;;0.20;0.20;;;17.30;99.90;;;;;;4917624;28;20331;-66
2023/05/10 02:15:12;;;;;;;0.30;0.30;;;16.90;99.90;;;;;;4926641;28;20206;-65
2023/05/10 02:17:42;;;;;;;0.30;0.30;;;17.00;99.90;;;;;;4949192;29;20285;-65
2023/05/10 02:20:10;;;;;;;0.30;0.30;;;17.10;99.90;;;;;;4935096;29;20203;-66
2023/05/10 02:22:38;;;;;;;0.30;0.30;;;17.00;99.90;;;;;;4935126;29;20214;-66
2023/05/10 02:25:08;;;;;;;0.30;0.30;;;16.90;99.90;;;;;;4949003;29;20203;-65
2023/05/10 02:27:37;;;;;;;0.30;0.30;;;17.00;99.90;;;;;;4950685;29;20616;-62
2023/05/10 02:30:07;;;;;;;0.30;0.30;;;17.00;99.90;;;;;;4939708;29;20207;-62
2023/05/10 02:32:35;;;;;;;0.30;0.30;;;16.90;99.90;;;;;;4944976;28;20205;-65
2023/05/10 02:35:03;;;;;;;0.30;0.30;;;16.80;99.90;;;;;;4934893;29;20220;-65
2023/05/10 02:37:32;;;;;;;0.22;0.22;;;16.80;99.90;;;;;;4935499;29;20222;-61
2023/05/10 02:40:05;;;;;;;0.30;0.30;;;17.10;99.90;;;;;;4947639;29;20288;-61
2023/05/10 02:42:36;;;;;;;0.35;0.35;;;17.10;99.90;;;;;;4931995;29;20199;-63
2023/05/10 02:45:10;;;;;;;0.20;0.20;;;16.90;99.90;;;;;;4940711;28;20258;-62
2023/05/10 02:47:38;;;;;;;0.30;0.30;;;16.80;99.90;;;;;;4941579;29;20250;-62
2023/05/10 02:50:05;;;;;;;0.20;0.20;;;16.60;99.90;;;;;;4931825;29;20207;-63
2023/05/10 02:52:42;;;;;;;0.30;0.30;;;16.50;99.90;;;;;;4943461;29;20682;-61
2023/05/10 02:55:13;;;;;;;0.30;0.30;;;16.50;99.90;;;;;;4928711;29;20203;-61
2023/05/10 02:57:49;;;;;;;0.30;0.30;;;16.60;99.90;;;;;;4939196;29;20739;-62
2023/05/10 03:00:16;;;;;;;0.30;0.30;;;16.50;99.90;;;;;;4939821;29;20705;-61
2023/05/10 03:02:44;;;;;;;0.30;0.30;;;16.30;99.90;;;;;;4934922;28;20607;-61
2023/05/10 03:05:11;;;;;;;0.30;0.30;;;16.40;99.90;;;;;;4943866;29;20274;-62
2023/05/10 03:07:38;;;;;;;0.30;0.30;;;16.60;99.90;;;;;;4951420;29;20230;-62
2023/05/10 03:10:05;;;;;;;0.40;0.40;;;16.40;99.90;;;;;;4941516;29;20206;-62
2023/05/10 03:13:16;;;;;;;0.20;0.20;;;16.30;99.90;;;;;;4930717;29;20572;-63
2023/05/10 03:15:55;;;;;;;0.30;0.30;;;16.20;99.90;;;;;;4879042;29;20208;-62
2023/05/10 03:18:28;;;;;;;0.37;0.37;;;16.10;99.90;;;;;;4956205;28;20733;-61
2023/05/10 03:20:59;;;;;;;0.30;0.30;;;16.00;99.90;;;;;;4960598;28;20292;-63
2023/05/10 03:23:33;;;;;;;0.30;0.30;;;15.90;99.90;;;;;;4942503;28;20190;-63
2023/05/10 03:26:02;;;;;;;0.32;0.32;;;15.90;99.90;;;;;;4965445;28;20197;-62
2023/05/10 03:28:31;;;;;;;0.40;0.40;;;15.80;99.90;;;;;;4952602;28;20211;-64
2023/05/10 03:30:59;;;;;;;0.30;0.30;;;15.90;99.90;;;;;;4932493;29;20227;-64
2023/05/10 03:33:26;;;;;;;0.20;0.20;;;16.10;99.90;;;;;;4939740;29;20611;-64
2023/05/10 03:35:53;;;;;;;0.20;0.20;;;16.00;99.90;;;;;;4944333;28;20205;-62
2023/05/10 03:38:20;;;;;;;0.40;0.40;;;15.80;99.90;;;;;;4948726;28;20210;-62
2023/05/10 03:40:47;;;;;;;0.30;0.30;;;15.80;99.90;;;;;;4959777;28;20190;-63
2023/05/10 03:43:15;;;;;;;0.30;0.30;;;15.70;99.90;;;;;;4966412;28;20194;-63
2023/05/10 03:45:42;;;;;;;0.30;0.30;;;15.70;99.90;;;;;;4960064;28;20195;-64
2023/05/10 03:48:08;;;;;;;0.20;0.20;;;15.90;99.90;;;;;;4970558;28;20194;-66
2023/05/10 03:50:36;;;;;;;0.32;0.32;;;16.00;99.90;;;;;;4968880;28;20206;-63
2023/05/10 03:53:03;;;;;;;0.30;0.30;;;15.90;99.90;;;;;;4955215;28;20268;-61
2023/05/10 03:55:34;;;;;;;0.35;0.35;;;16.00;99.90;;;;;;4956804;28;20270;-62
2023/05/10 03:58:01;;;;;;;0.50;0.50;;;15.80;99.90;;;;;;4925265;28;20262;-61
2023/05/10 04:00:28;;;;;;;0.30;0.30;;;15.70;99.90;;;;;;4946906;28;20617;-61
2023/05/10 04:02:55;;;;;;;0.30;0.30;;;15.60;99.90;;;;;;4944681;29;20231;-61
2023/05/10 04:05:22;;;;;;;0.20;0.20;;;15.60;99.90;;;;;;4934326;29;20714;-62
2023/05/10 04:07:51;;;;;;;0.30;0.30;;;15.70;99.90;;;;;;4967933;28;20197;-61
2023/05/10 04:10:19;;;;;;;0.30;0.30;;;15.70;99.90;;;;;;4922268;29;20759;-61
2023/05/10 04:12:46;;;;;;;0.30;0.30;;;16.10;99.90;;;;;;4949683;28;20222;-62
2023/05/10 04:15:13;;;;;;;0.27;0.27;;;16.10;99.90;;;;;;4950808;28;20255;-62
2023/05/10 04:17:40;;;;;;;0.20;0.20;;;15.90;99.90;;;;;;4965044;28;20931;-62
2023/05/10 04:20:08;;;;;;;0.30;0.30;;;15.60;99.90;;;;;;4966398;28;20198;-64
2023/05/10 04:22:35;;;;;;;0.30;0.30;;;15.60;99.90;;;;;;4952945;28;20195;-62
2023/05/10 04:25:02;;;;;;;0.30;0.30;;;15.40;99.90;;;;;;4932125;29;20246;-62
2023/05/10 04:27:29;;;;;;;0.30;0.30;;;15.40;99.90;;;;;;4935508;28;20254;-62
2023/05/10 04:29:56;;;;;;;0.30;0.30;;;15.60;99.90;;;;;;4946203;28;20294;-63
2023/05/10 04:32:23;;;;;;;0.30;0.30;;;15.50;99.90;;;;;;4928470;28;20199;-63
2023/05/10 04:34:53;;;;;;;0.20;0.20;;;15.40;99.90;;;;;;4931198;29;20213;-64
2023/05/10 04:37:21;;;;;;;0.27;0.27;;;15.50;99.90;;;;;;4927983;28;20301;-62
2023/05/10 04:39:48;;;;;;;0.30;0.30;;;15.40;99.90;;;;;;4938631;29;20721;-62
2023/05/10 04:42:15;;;;;;;0.40;0.40;;;15.40;99.90;;;;;;4944615;28;20203;-62
2023/05/10 04:44:42;;;;;;;0.32;0.32;;;15.60;99.90;;;;;;4951115;28;20533;-65
2023/05/10 04:47:09;;;;;;;0.30;0.30;;;15.70;99.90;;;;;;4947943;28;20251;-66
2023/05/10 04:49:38;;;;;;;0.20;0.20;;;16.00;99.90;;;;;;4962944;28;20213;-66
2023/05/10 04:52:05;;;;;;;0.30;0.30;;;16.00;99.90;;;;;;4950603;28;20249;-66
2023/05/10 04:54:32;;;;;;;0.40;0.40;;;15.50;99.90;;;;;;4954122;28;20647;-66
2023/05/10 04:56:59;;;;;;;0.30;0.30;;;15.80;99.90;;;;;;4964922;28;20197;-66
2023/05/10 04:59:26;;;;;;;0.30;0.30;;;15.80;99.90;;;;;;4957906;28;20667;-68
2023/05/10 05:01:53;;;;;;;0.20;0.20;;;16.00;99.90;;;;;;4964619;28;20363;-66
2023/05/10 05:04:20;;;;;;;0.20;0.20;;;16.10;99.90;;;;;;4958511;28;20187;-66
2023/05/10 05:06:47;;;;;;;0.20;0.20;;;15.90;99.90;;;;;;4963178;28;20249;-67
2023/05/10 05:09:14;;;;;;;0.30;0.30;;;15.90;99.90;;;;;;4949918;28;21693;-67
2023/05/10 05:11:41;;;;;;;0.30;0.30;;;16.20;99.90;;;;;;4930438;29;20274;-66
2023/05/10 05:14:08;;;;;;;0.20;0.20;;;16.10;99.90;;;;;;4950409;29;20709;-66
2023/05/10 05:16:35;;;;;;;0.30;0.30;;;16.00;99.90;;;;;;4953546;29;20246;-66
2023/05/10 05:19:02;;;;;;;0.30;0.30;;;15.90;99.90;;;;;;4950637;29;20270;-66
2023/05/10 05:21:29;;;;;;;0.30;0.30;;;15.70;99.90;;;;;;4936718;29;20198;-67
2023/05/10 05:23:56;;;;;;;0.30;0.30;;;15.90;99.90;;;;;;4940718;29;20720;-67
2023/05/10 05:26:23;;;;;;;0.30;0.30;;;16.10;99.90;;;;;;4953167;29;20187;-67
2023/05/10 05:28:53;;;;;;;0.30;0.30;;;16.00;99.90;;;;;;4937993;29;20203;-67
2023/05/10 05:31:20;;;;;;;0.30;0.30;;;15.90;99.90;;;;;;4942166;28;20270;-67
2023/05/10 05:33:47;;;;;;;0.20;0.20;;;15.70;99.90;;;;;;4951402;28;20715;-66
2023/05/10 05:36:14;;;;;;;0.30;0.30;;;16.00;99.90;;;;;;4951274;29;20199;-67
2023/05/10 05:38:42;;;;;;;0.30;0.30;;;16.10;99.90;;;;;;4953215;29;20222;-67
2023/05/10 05:41:09;;;;;;;0.30;0.30;;;16.00;99.90;;;;;;4947252;29;20687;-67
2023/05/10 05:43:36;;;;;;;0.30;0.30;;;16.00;99.90;;;;;;4951106;29;20718;-66
2023/05/10 05:46:04;;;;;;;0.40;0.40;;;16.40;99.90;;;;;;4945719;29;20191;-65
2023/05/10 05:48:31;;;;;;;0.20;0.20;;;16.60;99.90;;;;;;4949085;28;20206;-66
2023/05/10 05:50:58;;;;;;;0.20;0.20;;;15.80;99.90;;;;;;4952494;29;20254;-66
2023/05/10 05:53:26;;;;;;;0.20;0.20;;;15.90;99.90;;;;;;4952819;29;20237;-65
2023/05/10 05:55:57;;;;;;;0.20;0.20;;;15.90;99.90;;;;;;4951848;29;20556;-67
2023/05/10 05:58:25;;;;;;;0.30;0.30;;;15.80;99.90;;;;;;4943019;29;20266;-67
2023/05/10 06:00:52;;;;;;;0.30;0.30;;;15.40;99.90;;;;;;4945995;29;20251;-66
2023/05/10 06:03:20;;;;;;;0.30;0.30;;;15.70;99.90;;;;;;4940490;28;20887;-66
2023/05/10 06:05:48;;;;;;;0.35;0.35;;;15.70;99.90;;;;;;4934062;29;20187;-66
2023/05/10 06:08:15;;;;;;;0.30;0.30;;;15.70;99.90;;;;;;4938428;28;20203;-66
2023/05/10 06:10:42;;;;;;;0.30;0.30;;;15.80;99.90;;;;;;4953681;28;20211;-67
2023/05/10 06:13:09;;;;;;;0.30;0.30;;;15.70;99.90;;;;;;4965145;28;20650;-67
2023/05/10 06:15:37;;;;;;;0.20;0.20;;;15.80;99.90;;;;;;4932072;28;20713;-67
2023/05/10 06:18:04;;;;;;;0.40;0.40;;;15.90;99.90;;;;;;4966724;28;20304;-66
2023/05/10 06:20:31;;;;;;;0.30;0.30;;;15.90;99.90;;;;;;4944195;29;20274;-66
2023/05/10 06:22:58;;;;;;;15.50;9.48;;;15.80;99.90;;;;;;4962509;28;20202;-66
2023/05/10 06:25:25;;;;;;;0.30;0.30;;;15.90;99.90;;;;;;4960850;28;20191;-66
2023/05/10 06:27:56;;;;;;;0.30;0.30;;;15.80;99.90;;;;;;4960479;28;20600;-66
2023/05/10 06:30:27;;;;;;;0.30;0.30;;;15.70;99.90;;;;;;4970518;28;20217;-66
2023/05/10 06:32:55;;;;;;;0.30;0.30;;;15.60;99.90;;;;;;4957885;28;20558;-67
2023/05/10 06:35:22;;;;;;;0.30;0.30;;;15.40;99.90;;;;;;4951442;28;20207;-65
2023/05/10 06:37:50;;;;;;;0.20;0.20;;;15.30;99.90;;;;;;4955110;28;20710;-67
2023/05/10 06:40:18;;;;;;;0.30;0.30;;;15.40;99.90;;;;;;4924740;28;20636;-67
2023/05/10 06:42:46;;;;;;;0.35;0.35;;;15.30;99.90;;;;;;4961511;28;20194;-66
2023/05/10 06:45:14;;;;;;;0.30;0.30;;;15.30;99.90;;;;;;4949451;28;20274;-66
2023/05/10 06:47:42;;;;;;;0.30;0.30;;;15.60;99.90;;;;;;4963802;28;20211;-65
2023/05/10 06:50:11;;;;;;;0.30;0.30;;;15.50;99.90;;;;;;4941436;28;20270;-67
2023/05/10 06:52:38;;;;;;;0.30;0.30;;;15.70;99.90;;;;;;4949717;28;20195;-67
2023/05/10 06:55:06;;;;;;;0.20;0.20;;;15.60;99.90;;;;;;4949914;28;20275;-67
2023/05/10 06:57:33;;;;;;;0.30;0.30;;;15.90;99.90;;;;;;4942789;28;20198;-66
2023/05/10 07:00:00;;;;;;;0.28;0.28;;;15.40;99.90;;;;;;4949919;29;20206;-66
2023/05/10 07:02:28;;;;;;;0.30;0.30;;;15.50;99.90;;;;;;4959027;28;20245;-66
2023/05/10 07:04:55;;;;;;;0.30;0.30;;;15.80;99.90;;;;;;4956798;28;20209;-66
2023/05/10 07:07:22;;;;;;;0.28;0.28;;;15.90;99.90;;;;;;4960027;28;20768;-69
2023/05/10 07:09:49;;;;;;;0.30;0.30;;;15.80;99.90;;;;;;4947130;28;20701;-68
2023/05/10 07:12:17;;;;;;;0.30;0.30;;;15.50;99.90;;;;;;4955805;28;20282;-66
2023/05/10 07:14:44;;;;;;;0.30;0.30;;;15.30;99.90;;;;;;4966153;28;20191;-68
2023/05/10 07:17:11;;;;;;;0.30;0.30;;;15.80;99.90;;;;;;4955814;28;20568;-66
2023/05/10 07:19:38;;;;;;;0.20;0.20;;;15.80;99.90;;;;;;4965975;28;20272;-69
2023/05/10 07:22:05;;;;;;;0.30;0.30;;;16.00;99.90;;;;;;4970779;28;20194;-66
2023/05/10 07:24:33;;;;;;;0.30;0.30;;;16.30;99.90;;;;;;4962133;28;20202;-67
2023/05/10 07:27:00;;;;;;;0.30;0.30;;;15.90;99.90;;;;;;4932669;28;20583;-66
2023/05/10 07:29:27;;;;;;;0.30;0.30;;;15.90;99.90;;;;;;4936825;28;20293;-67
2023/05/10 07:31:54;;;;;;;0.30;0.30;;;15.90;99.90;;;;;;4930659;28;20357;-66
2023/05/10 07:34:24;;;;;;;0.30;0.30;;;16.20;99.90;;;;;;4957622;28;20202;-67
2023/05/10 07:36:52;;;;;;;0.30;0.30;;;16.30;99.90;;;;;;4957940;28;20249;-66
2023/05/10 07:39:20;;;;;;;0.20;0.20;;;16.10;99.90;;;;;;4946203;28;20217;-67
2023/05/10 07:41:55;;;;;;;0.20;0.20;;;16.30;99.90;;;;;;4954927;28;20661;-66
2023/05/10 07:44:22;;;;;;;0.20;0.20;;;16.50;99.90;;;;;;4955530;28;20889;-67
2023/05/10 07:46:49;;;;;;;0.30;0.30;;;17.20;99.90;;;;;;4954722;28;20756;-67
2023/05/10 07:49:16;;;;;;;0.20;0.20;;;17.70;99.90;;;;;;4951206;28;20243;-66
2023/05/10 07:51:43;;;;;;;0.20;0.20;;;18.90;99.90;;;;;;4956678;28;20226;-66
2023/05/10 07:54:10;;;;;;;0.20;0.20;;;20.30;99.90;;;;;;4955235;28;20651;-65
2023/05/10 07:56:37;;;;;;;0.20;0.20;;;20.40;99.90;;;;;;4948759;28;20290;-66
2023/05/10 07:59:06;;;;;;;0.22;0.22;;;21.50;1.00;;;;;;4952950;28;20297;-66
2023/05/10 08:01:35;;;;;;;0.20;0.20;;;22.30;1.00;;;;;;4950633;28;20222;-66
2023/05/10 08:04:02;;;;;;;0.13;0.13;;;25.20;99.90;;;;;;4950467;28;20199;-66
2023/05/10 08:06:29;;;;;;;0.10;0.10;;;26.90;1.00;;;;;;4947563;28;20190;-65
2023/05/10 08:08:57;;;;;;;0.10;0.10;;;25.60;1.00;;;;;;4929295;29;20207;-66
2023/05/10 08:11:24;;;;;;;0.20;0.20;;;25.40;1.00;;;;;;4942515;28;20191;-66
2023/05/10 08:13:52;;;;;;;0.30;0.30;;;25.80;1.00;;;;;;4930395;28;20199;-64
2023/05/10 08:16:22;;;;;;;0.10;0.10;;;25.40;1.00;;;;;;4916618;28;20226;-65
2023/05/10 08:18:50;;;;;;;0.20;0.20;;;24.70;1.00;;;;;;4938904;28;20317;-66
2023/05/10 08:21:18;;;;;;;0.20;0.20;;;24.60;99.90;;;;;;4940329;28;20211;-66
2023/05/10 08:23:45;;;;;;;0.20;0.20;;;26.30;99.90;;;;;;4946289;28;20311;-66
2023/05/10 08:26:12;;;;;;;0.10;0.10;;;27.50;99.90;;;;;;4948181;28;22035;-66
2023/05/10 08:28:39;;;;;;;0.20;0.20;;;25.80;99.90;;;;;;4932426;28;20537;-66
2023/05/10 08:31:06;;;;;;;0.17;0.17;;;24.60;99.90;;;;;;4951441;28;20659;-66
2023/05/10 08:33:33;;;;;;;0.20;0.20;;;23.20;99.90;;;;;;4931745;28;20210;-67
2023/05/10 08:36:00;;;;;;;0.40;0.40;;;22.60;99.90;;;;;;4937395;29;20283;-66
2023/05/10 08:38:27;;;;;;;0.13;0.13;;;26.90;99.90;;;;;;4950989;28;20242;-65
2023/05/10 08:40:58;;;;;;;0.63;0.63;;;29.40;99.90;;;;;;4951310;28;20552;-65
2023/05/10 08:43:28;;;;;;;0.20;0.20;;;27.60;99.90;;;;;;4951909;28;20187;-65
2023/05/10 08:45:56;;;;;;;0.10;0.10;;;26.00;99.90;;;;;;4949366;28;20686;-65
2023/05/10 08:48:24;;;;;;;0.10;0.10;;;25.80;99.90;;;;;;4954300;28;20237;-66
2023/05/10 08:50:57;;;;;;;0.20;0.20;;;27.00;99.90;;;;;;4952151;28;20474;-66
2023/05/10 08:53:27;;;;;;;0.10;0.10;;;25.70;99.90;;;;;;4939680;29;20558;-66
2023/05/10 08:55:55;;;;;;;0.20;0.20;;;26.40;99.90;;;;;;4948012;28;20249;-65
2023/05/10 08:58:22;;;;;;;0.10;0.10;;;26.20;99.90;;;;;;4946040;28;20206;-65
2023/05/10 09:00:51;;;;;;;0.20;0.20;;;27.10;99.90;;;;;;4940088;28;20239;-64
2023/05/10 09:03:18;;;;;;;0.20;0.20;;;24.30;99.90;;;;;;4936385;28;20245;-66
2023/05/10 09:05:45;;;;;;;0.10;0.10;;;24.20;99.90;;;;;;4946622;28;20297;-66
2023/05/10 09:08:15;;;;;;;0.20;0.20;;;24.30;99.90;;;;;;4953835;28;20200;-65
2023/05/10 09:10:48;;;;;;;0.20;0.20;;;23.30;99.90;;;;;;4949387;28;20231;-66
2023/05/10 09:13:15;;;;;;;1.77;0.90;;;20.90;99.90;;;;;;4957272;28;20237;-68
2023/05/10 09:15:44;;;;;;;0.20;0.20;;;20.00;99.90;;;;;;4944611;28;20207;-67
2023/05/10 09:18:12;;;;;;;0.30;0.30;;;19.70;99.90;;;;;;4944290;29;20622;-67
2023/05/10 09:20:40;;;;;;;0.20;0.20;;;19.70;99.90;;;;;;4928346;29;20187;-66
2023/05/10 09:23:07;;;;;;;0.20;0.20;;;19.20;99.90;;;;;;4932421;29;20219;-67
2023/05/10 09:25:34;;;;;;;0.90;0.90;;;19.00;99.90;;;;;;4943914;28;20195;-68
2023/05/10 09:28:02;;;;;;;0.20;0.20;;;21.60;99.90;;;;;;4942177;28;20195;-66
2023/05/10 09:30:30;;;;;;;0.10;0.10;;;26.10;99.90;;;;;;4951657;28;20214;-65
2023/05/10 09:32:59;;;;;;;0.10;0.10;;;29.10;99.90;;;;;;4934612;29;20771;-65
2023/05/10 09:35:29;;;;;;;0.10;0.10;;;31.40;99.90;;;;;;4947828;28;20675;-65
2023/05/10 09:38:00;;;;;;;0.20;0.20;;;29.80;99.90;;;;;;4935800;29;20199;-64
2023/05/10 09:40:29;;;;;;;0.10;0.10;;;27.40;99.90;;;;;;4951043;28;20202;-66
2023/05/10 09:42:58;;;;;;;0.20;0.20;;;23.30;99.90;;;;;;4948534;28;20206;-65
2023/05/10 09:45:30;;;;;;;0.20;0.20;;;24.20;99.90;;;;;;4931794;29;20214;-65
2023/05/10 09:47:58;;;;;;;0.20;0.20;;;26.20;99.90;;;;;;4950587;28;20408;-65
2023/05/10 09:50:26;;;;;;;0.20;0.20;;;27.80;99.90;;;;;;4954862;28;20203;-65
2023/05/10 09:52:59;;;;;;;0.63;0.63;;;28.60;99.90;;;;;;4950869;28;20221;-66
2023/05/10 09:55:37;;;;;;;0.10;0.10;;;28.70;99.90;;;;;;4930256;29;20709;-65
2023/05/10 09:58:06;;;;;;;0.10;0.10;;;28.80;99.90;;;;;;4954962;28;20203;-64
2023/05/10 10:00:37;;;;;;;0.20;0.20;;;27.60;99.90;;;;;;4948634;28;20669;-65
2023/05/10 10:03:05;;;;;;;0.10;0.10;;;27.60;99.90;;;;;;4950739;28;20235;-65
2023/05/10 10:05:35;;;;;;;0.20;0.20;;;25.20;99.90;;;;;;4952744;28;20567;-65
2023/05/10 10:08:04;;;;;;;0.20;0.20;;;23.50;99.90;;;;;;4949138;28;20683;-66
2023/05/10 10:10:32;;;;;;;2.65;1.75;;;21.50;99.90;;;;;;4933377;28;20199;-66
2023/05/10 10:13:00;;;;;;;0.57;0.57;;;20.20;99.90;;;;;;4936929;28;20269;-66
2023/05/10 10:15:27;;;;;;;0.20;0.20;;;20.30;99.90;;;;;;4945209;28;20195;-66
2023/05/10 10:17:54;;;;;;;0.28;0.28;;;20.90;99.90;;;;;;4933239;29;20203;-66
2023/05/10 10:20:22;;;;;;;0.10;0.10;;;23.00;99.90;;;;;;4935324;29;20269;-66
2023/05/10 10:22:49;;;;;;;0.20;0.20;;;25.50;99.90;;;;;;4949276;28;20280;-66
2023/05/10 10:25:18;;;;;;;0.25;0.25;;;26.90;99.90;;;;;;4952464;28;20635;-66
2023/05/10 10:27:51;;;;;;;0.77;0.77;;;25.00;99.90;;;;;;4952118;28;20269;-66
2023/05/10 10:30:42;;;;;;;0.15;0.15;;;23.10;99.90;;;;;;4944512;28;20205;-67
2023/05/10 10:33:36;;;;;;;0.10;0.10;;;21.40;99.90;;;;;;4952420;28;20237;-66
2023/05/10 10:36:04;;;;;;;0.20;0.20;;;21.10;99.90;;;;;;4951994;28;20198;-66
2023/05/10 10:39:00;;;;;;;0.20;0.20;;;21.30;99.90;;;;;;4949744;28;20199;-66
2023/05/10 10:41:40;;;;;;;0.57;0.57;;;21.60;99.90;;;;;;4933975;29;20203;-67
2023/05/10 10:44:25;;;;;;;0.20;0.20;;;22.10;99.90;;;;;;4936391;29;20231;-67
2023/05/10 10:47:11;;;;;;;0.20;0.20;;;23.20;99.90;;;;;;4955254;28;20203;-66
2023/05/10 10:49:42;;;;;;;0.20;0.20;;;24.60;99.90;;;;;;4946146;28;20646;-66
2023/05/10 10:52:33;;;;;;;0.20;0.20;;;25.40;99.90;;;;;;4951550;28;20884;-66
2023/05/10 10:55:04;;;;;;;0.25;0.25;;;26.00;99.90;;;;;;4937528;28;20227;-66
2023/05/10 10:57:44;;;;;;;0.17;0.17;;;26.10;99.90;;;;;;4951729;28;20195;-66
2023/05/10 11:00:18;;;;;;;0.20;0.20;;;25.60;99.90;;;;;;4957623;28;20215;-64
2023/05/10 11:02:48;;;;;;;0.20;0.20;;;25.80;99.90;;;;;;4950150;28;20298;-65
2023/05/10 11:05:38;;;;;;;0.20;0.20;;;25.50;99.90;;;;;;4946821;28;20191;-68
2023/05/10 11:08:15;;;;;;;0.20;0.20;;;23.50;99.90;;;;;;4933663;28;20698;-66
2023/05/10 11:10:51;;;;;;;0.20;0.20;;;23.30;99.90;;;;;;4945932;28;20253;-65
2023/05/10 11:13:32;;;;;;;0.10;0.10;;;24.90;99.90;;;;;;4954146;28;20222;-66
2023/05/10 11:16:09;;;;;;;0.20;0.20;;;25.90;99.90;;;;;;4948419;28;20548;-66
2023/05/10 11:18:37;;;;;;;0.20;0.20;;;26.60;99.90;;;;;;4939588;28;20239;-66
2023/05/10 11:21:09;;;;;;;0.88;0.88;;;25.00;99.90;;;;;;4938463;29;20310;-66
2023/05/10 11:23:44;;;;;;;0.10;0.10;;;26.20;99.90;;;;;;4949568;28;20235;-66
2023/05/10 11:26:11;;;;;;;0.20;0.20;;;25.80;99.90;;;;;;4948213;28;20573;-65
2023/05/10 11:28:49;;;;;;;0.10;0.10;;;25.80;99.90;;;;;;4951697;28;20242;-65
2023/05/10 11:31:17;;;;;;;0.20;0.20;;;26.20;99.90;;;;;;4937208;28;20260;-66
2023/05/10 11:33:46;;;;;;;0.10;0.10;;;27.00;99.90;;;;;;4928684;28;20187;-65
2023/05/10 11:36:15;;;;;;;0.10;0.10;;;26.00;99.90;;;;;;4948789;29;20201;-63
2023/05/10 11:38:43;;;;;;;0.20;0.20;;;27.00;99.90;;;;;;4949960;28;20861;-66
2023/05/10 11:41:11;;;;;;;0.20;0.20;;;26.30;99.90;;;;;;4952578;28;20352;-63
2023/05/10 11:43:42;;;;;;;0.20;0.20;;;26.80;99.90;;;;;;4930105;29;20258;-66
2023/05/10 11:46:13;;;;;;;0.28;0.28;;;26.00;99.90;;;;;;4927853;28;20784;-66
2023/05/10 11:48:41;;;;;;;0.20;0.20;;;25.40;99.90;;;;;;4945980;28;20195;-66
2023/05/10 11:51:10;;;;;;;0.20;0.20;;;24.50;99.90;;;;;;4943917;28;20277;-66
2023/05/10 11:53:38;;;;;;;9.52;2.47;;;24.90;99.90;;;;;;4946252;28;20546;-66
2023/05/10 11:56:11;;;;;;;0.10;0.10;;;25.40;99.90;;;;;;4920419;28;20230;-64
2023/05/10 11:58:39;;;;;;;0.30;0.30;;;24.40;99.90;;;;;;4943141;28;20211;-63
2023/05/10 12:01:08;;;;;;;0.20;0.20;;;23.70;99.90;;;;;;4945321;28;20215;-65
2023/05/10 12:03:36;;;;;;;3.30;2.33;;;22.50;99.90;;;;;;4940966;28;20460;-64
2023/05/10 12:06:04;;;;;;;0.20;0.20;;;22.30;99.90;;;;;;4937165;28;20244;-64
2023/05/10 12:08:31;;;;;;;0.20;0.20;;;22.30;99.90;;;;;;4929362;28;20195;-65
2023/05/10 12:11:06;;;;;;;0.28;0.28;;;22.40;99.90;;;;;;4945893;28;20201;-65
2023/05/10 12:13:39;;;;;;;0.30;0.30;;;22.60;99.90;;;;;;4937958;28;20277;-63
2023/05/10 12:16:19;;;;;;;1.55;1.25;;;22.60;99.90;;;;;;4945974;28;20208;-63
2023/05/10 12:18:55;;;;;;;0.20;0.20;;;22.60;99.90;;;;;;4937465;28;20298;-64
2023/05/10 12:21:22;;;;;;;0.20;0.20;;;22.70;99.90;;;;;;4949270;28;20306;-66
2023/05/10 12:23:55;;;;;;;0.20;0.20;;;23.00;99.90;;;;;;4948377;28;20489;-64
2023/05/10 12:26:24;;;;;;;0.20;0.20;;;23.80;99.90;;;;;;4944061;28;20678;-64
2023/05/10 12:28:51;;;;;;;0.20;0.20;;;24.40;99.90;;;;;;4944783;28;20202;-63
2023/05/10 12:31:18;;;;;;;0.30;0.30;;;24.40;99.90;;;;;;4937234;28;20199;-63
2023/05/10 12:33:47;;;;;;;0.20;0.20;;;23.50;99.90;;;;;;4944610;28;20275;-64
2023/05/10 12:36:15;;;;;;;0.20;0.20;;;23.40;99.90;;;;;;4942211;28;20277;-64
2023/05/10 12:38:44;;;;;;;0.20;0.20;;;22.60;99.90;;;;;;4922062;29;20320;-64
2023/05/10 12:41:13;;;;;;;0.50;0.50;;;22.70;99.90;;;;;;4940630;28;20321;-63
2023/05/10 12:43:40;;;;;;;0.20;0.20;;;23.00;99.90;;;;;;4928214;28;20224;-63
2023/05/10 12:46:12;;;;;;;0.30;0.30;;;23.40;99.90;;;;;;4928006;28;20506;-64
2023/05/10 12:48:41;;;;;;;0.20;0.20;;;23.30;99.90;;;;;;4943764;28;20655;-63
2023/05/10 12:51:09;;;;;;;0.20;0.20;;;23.20;99.90;;;;;;4940490;28;20214;-64
2023/05/10 12:53:36;;;;;;;0.20;0.20;;;23.00;99.90;;;;;;4938641;28;20205;-65
2023/05/10 12:56:03;;;;;;;0.30;0.30;;;23.40;99.90;;;;;;4940621;28;20302;-63
2023/05/10 12:58:31;;;;;;;23.75;21.05;;;23.40;99.90;;;;;;4915645;29;20206;-64
2023/05/10 13:01:02;;;;;;;32.00;23.73;;;22.40;99.90;;;;;;4935941;28;20633;-64